Time;durP1;ratioP1;P1;durP2;ratioP2;P2;SDS_P1;SDS_P2;PMS_P1;PMS_P2;Temp;Humidity;BMP_temperature;BMP_pressure;BME280_temperature;BME280_humidity;BME280_pressure;Samples;Min_cycle;Max_cycle;Signal;HPM_P1;HPM_P2
2023/12/04 00:02:19;;;;;;;2.60;1.30;;;1.30;91.80;;;;;;5136572;27;20077;-72
2023/12/04 00:04:44;;;;;;;2.35;1.30;;;1.30;91.80;;;;;;5118054;27;20043;-73
2023/12/04 00:07:10;;;;;;;2.15;1.02;;;1.40;91.90;;;;;;5136979;27;20142;-73
2023/12/04 00:09:36;;;;;;;2.25;1.27;;;1.30;91.80;;;;;;5136930;27;20042;-72
2023/12/04 00:12:02;;;;;;;2.78;1.30;;;1.30;91.80;;;;;;5136280;27;20035;-72
2023/12/04 00:14:28;;;;;;;2.58;1.27;;;1.30;92.10;;;;;;5114500;28;20073;-72
2023/12/04 00:16:53;;;;;;;2.53;1.10;;;1.30;91.80;;;;;;5114769;28;20043;-72
2023/12/04 00:19:21;;;;;;;2.60;1.38;;;1.30;91.80;;;;;;5114979;28;20039;-72
2023/12/04 00:21:47;;;;;;;2.85;1.20;;;1.30;91.80;;;;;;5083747;27;20042;-72
2023/12/04 00:24:12;;;;;;;2.50;1.30;;;1.30;91.80;;;;;;5097602;28;20399;-73
2023/12/04 00:26:38;;;;;;;2.70;1.13;;;1.20;91.80;;;;;;5114198;28;20043;-72
2023/12/04 00:29:04;;;;;;;1.55;0.90;;;1.30;91.90;;;;;;5114400;28;20502;-72
2023/12/04 00:31:31;;;;;;;2.25;1.20;;;1.30;91.90;;;;;;5114774;28;20043;-72
2023/12/04 00:33:57;;;;;;;2.35;1.30;;;1.30;91.90;;;;;;5114221;28;20491;-72
2023/12/04 00:36:22;;;;;;;2.58;1.50;;;1.30;91.90;;;;;;5097086;28;20045;-72
2023/12/04 00:38:48;;;;;;;2.63;1.33;;;1.30;91.90;;;;;;5114348;28;20074;-73
2023/12/04 00:41:14;;;;;;;2.17;1.08;;;1.30;91.90;;;;;;5097422;28;20137;-72
2023/12/04 00:43:39;;;;;;;2.40;1.40;;;1.30;91.90;;;;;;5128334;27;20084;-73
2023/12/04 00:46:05;;;;;;;2.67;1.25;;;1.30;91.90;;;;;;5136263;27;20039;-72
2023/12/04 00:48:31;;;;;;;2.53;1.30;;;1.30;91.90;;;;;;5136386;27;20100;-72
2023/12/04 00:50:58;;;;;;;4.00;1.60;;;1.30;91.80;;;;;;5135693;27;20460;-72
2023/12/04 00:53:23;;;;;;;2.05;1.17;;;1.30;91.90;;;;;;5117980;28;20465;-73
2023/12/04 00:55:49;;;;;;;3.47;1.48;;;1.30;91.90;;;;;;5116346;27;20070;-73
2023/12/04 00:58:15;;;;;;;3.55;1.60;;;1.30;91.90;;;;;;5117461;27;20505;-73
2023/12/04 01:00:41;;;;;;;2.72;1.30;;;1.30;91.90;;;;;;5113624;28;20043;-72
2023/12/04 01:03:06;;;;;;;2.20;1.30;;;1.30;91.80;;;;;;5118869;27;20419;-73
2023/12/04 01:05:32;;;;;;;2.20;1.35;;;1.20;91.80;;;;;;5135307;27;20043;-72
2023/12/04 01:07:58;;;;;;;2.42;1.15;;;1.30;91.90;;;;;;5135209;27;20076;-72
2023/12/04 01:10:23;;;;;;;2.35;1.35;;;1.30;91.90;;;;;;5116704;27;20042;-72
2023/12/04 01:12:49;;;;;;;1.52;0.93;;;1.20;91.90;;;;;;5135334;27;20039;-72
2023/12/04 01:15:15;;;;;;;1.35;0.93;;;1.30;91.90;;;;;;5113349;28;20044;-72
2023/12/04 01:17:41;;;;;;;3.90;1.20;;;1.30;91.90;;;;;;5114615;28;20372;-72
2023/12/04 01:20:07;;;;;;;3.03;1.35;;;1.20;91.90;;;;;;5114400;27;20047;-73
2023/12/04 01:22:33;;;;;;;2.60;1.23;;;1.30;91.90;;;;;;5117105;27;20398;-72
2023/12/04 01:24:59;;;;;;;1.40;0.88;;;1.30;91.90;;;;;;5135014;27;20126;-72
2023/12/04 01:27:24;;;;;;;2.10;1.15;;;1.30;91.90;;;;;;5135402;27;20039;-72
2023/12/04 01:29:50;;;;;;;2.08;1.08;;;1.30;91.90;;;;;;5099372;27;20095;-72
2023/12/04 01:32:16;;;;;;;2.00;1.10;;;1.30;91.90;;;;;;5134883;27;20126;-73
2023/12/04 01:34:41;;;;;;;3.17;1.10;;;1.30;91.90;;;;;;5135442;27;20542;-72
2023/12/04 01:37:07;;;;;;;2.42;1.15;;;1.30;91.90;;;;;;5116439;27;20039;-72
2023/12/04 01:39:33;;;;;;;2.15;1.10;;;1.30;92.20;;;;;;5134891;27;20445;-72
2023/12/04 01:41:59;;;;;;;3.58;1.20;;;1.30;91.90;;;;;;5117002;27;20035;-72
2023/12/04 01:44:24;;;;;;;1.73;0.95;;;1.30;91.90;;;;;;5115904;27;20047;-72
2023/12/04 01:46:50;;;;;;;2.63;1.35;;;1.30;91.90;;;;;;5095979;28;20044;-72
2023/12/04 01:49:17;;;;;;;2.38;1.20;;;1.30;91.90;;;;;;5095923;28;20032;-72
2023/12/04 01:51:44;;;;;;;2.30;1.17;;;1.30;91.90;;;;;;5113036;28;20036;-72
2023/12/04 01:54:10;;;;;;;1.63;1.10;;;1.30;91.90;;;;;;5114467;28;20031;-73
2023/12/04 01:56:37;;;;;;;2.55;1.42;;;1.30;91.90;;;;;;5113331;28;20043;-72
2023/12/04 01:59:03;;;;;;;2.70;1.15;;;1.30;91.90;;;;;;5112587;28;20084;-73
2023/12/04 02:01:30;;;;;;;3.67;1.15;;;1.30;91.90;;;;;;5112929;28;20173;-72
2023/12/04 02:03:57;;;;;;;2.17;1.15;;;1.30;91.90;;;;;;5112821;28;20150;-72
2023/12/04 02:06:25;;;;;;;3.00;1.38;;;1.30;91.90;;;;;;5095537;28;20403;-72
2023/12/04 02:08:50;;;;;;;2.00;1.15;;;1.20;91.90;;;;;;5114119;28;20059;-73
2023/12/04 02:11:16;;;;;;;2.33;1.17;;;1.30;91.90;;;;;;5114405;28;20487;-72
2023/12/04 02:13:42;;;;;;;1.92;1.10;;;1.30;91.90;;;;;;5125549;27;20039;-72
2023/12/04 02:16:12;;;;;;;2.25;1.00;;;1.40;91.90;;;;;;5112587;28;20558;-72
2023/12/04 02:18:38;;;;;;;4.05;1.70;;;1.30;91.90;;;;;;5112914;28;20083;-72
2023/12/04 02:21:04;;;;;;;1.75;0.90;;;1.30;91.90;;;;;;5112279;28;20074;-73
2023/12/04 02:23:30;;;;;;;2.25;1.20;;;1.30;91.90;;;;;;5112362;28;20481;-73
2023/12/04 02:26:02;;;;;;;2.28;1.10;;;1.20;91.90;;;;;;5112184;28;20135;-72
2023/12/04 02:28:33;;;;;;;2.60;1.05;;;1.30;91.90;;;;;;5112511;28;20404;-72
2023/12/04 02:31:03;;;;;;;2.30;1.20;;;1.20;91.90;;;;;;5114038;28;20073;-73
2023/12/04 02:33:30;;;;;;;2.15;1.02;;;1.20;91.90;;;;;;5112175;28;20111;-72
2023/12/04 02:35:59;;;;;;;2.38;0.90;;;1.30;92.00;;;;;;5122762;27;20058;-73
2023/12/04 02:38:25;;;;;;;2.03;1.00;;;1.20;91.90;;;;;;5133771;27;20051;-73
2023/12/04 02:40:54;;;;;;;1.48;0.82;;;1.10;91.90;;;;;;5133942;27;20383;-73
2023/12/04 02:43:19;;;;;;;1.80;1.10;;;1.20;91.90;;;;;;5133669;27;20425;-73
2023/12/04 02:45:45;;;;;;;2.45;1.30;;;1.30;91.90;;;;;;5133613;27;20054;-73
2023/12/04 02:48:11;;;;;;;1.73;0.90;;;1.10;91.90;;;;;;5134342;27;20039;-73
2023/12/04 02:50:36;;;;;;;2.42;1.20;;;1.20;91.90;;;;;;5115231;28;20043;-73
2023/12/04 02:53:02;;;;;;;2.20;1.30;;;1.20;91.90;;;;;;5134215;27;20386;-73
2023/12/04 02:55:28;;;;;;;2.05;1.00;;;1.20;91.90;;;;;;5115298;28;20054;-73
2023/12/04 02:57:54;;;;;;;1.75;1.10;;;1.20;91.90;;;;;;5134099;27;20050;-72
2023/12/04 03:00:20;;;;;;;2.17;1.10;;;1.20;91.90;;;;;;5115626;28;20043;-73
2023/12/04 03:02:45;;;;;;;2.45;1.17;;;1.20;91.90;;;;;;5134052;27;20058;-73
2023/12/04 03:05:11;;;;;;;2.00;1.05;;;1.20;91.90;;;;;;5114996;28;20049;-73
2023/12/04 03:07:39;;;;;;;1.55;0.93;;;1.20;91.90;;;;;;5114878;27;20043;-73
2023/12/04 03:10:06;;;;;;;3.50;1.30;;;1.20;91.90;;;;;;5133295;27;20035;-73
2023/12/04 03:12:34;;;;;;;1.98;1.10;;;1.30;91.90;;;;;;5115003;28;20039;-73
2023/12/04 03:15:00;;;;;;;2.42;1.10;;;1.20;91.90;;;;;;5133314;27;20039;-73
2023/12/04 03:17:26;;;;;;;1.55;0.93;;;1.30;91.90;;;;;;5133340;27;20112;-73
2023/12/04 03:19:52;;;;;;;2.22;1.13;;;1.20;91.90;;;;;;5097297;27;20034;-72
2023/12/04 03:22:18;;;;;;;3.30;1.40;;;1.30;91.90;;;;;;5114765;28;20479;-73
2023/12/04 03:24:44;;;;;;;1.08;0.55;;;1.20;91.90;;;;;;5111182;28;20039;-73
2023/12/04 03:27:09;;;;;;;2.25;0.90;;;1.30;91.90;;;;;;5111267;28;20036;-73
2023/12/04 03:29:35;;;;;;;1.80;1.00;;;1.30;91.90;;;;;;5112824;28;20035;-73
2023/12/04 03:32:01;;;;;;;1.75;0.98;;;1.30;91.90;;;;;;5094626;28;20574;-73
2023/12/04 03:34:27;;;;;;;1.95;0.98;;;1.20;91.90;;;;;;5133658;27;20031;-72
2023/12/04 03:36:52;;;;;;;1.73;0.98;;;1.20;91.90;;;;;;5114557;27;20406;-73
2023/12/04 03:39:18;;;;;;;1.60;1.08;;;1.30;91.90;;;;;;5132879;27;20046;-73
2023/12/04 03:41:44;;;;;;;2.22;1.20;;;1.20;91.80;;;;;;5114611;27;20046;-73
2023/12/04 03:44:10;;;;;;;1.92;0.98;;;1.30;91.90;;;;;;5133463;27;20406;-73
2023/12/04 03:46:36;;;;;;;2.05;0.98;;;1.30;91.90;;;;;;5132900;27;20039;-72
2023/12/04 03:49:03;;;;;;;1.65;0.80;;;1.20;92.10;;;;;;5111264;28;20039;-73
2023/12/04 03:51:29;;;;;;;2.65;1.23;;;1.20;91.90;;;;;;5111001;28;20491;-72
2023/12/04 03:53:55;;;;;;;1.70;0.82;;;1.30;91.90;;;;;;5130875;27;20034;-73
2023/12/04 03:56:21;;;;;;;1.58;0.88;;;1.20;91.90;;;;;;5132662;27;20039;-72
2023/12/04 03:58:46;;;;;;;1.90;0.90;;;1.30;91.90;;;;;;5072302;28;20042;-73
2023/12/04 04:01:12;;;;;;;1.35;0.88;;;1.40;91.90;;;;;;5089819;28;20062;-73
2023/12/04 04:03:38;;;;;;;1.58;1.00;;;1.20;91.90;;;;;;5089666;28;20590;-72
2023/12/04 04:06:04;;;;;;;2.60;1.00;;;1.20;91.90;;;;;;5072746;28;20044;-73
2023/12/04 04:08:30;;;;;;;2.58;1.10;;;1.20;91.90;;;;;;5072970;28;20435;-73
2023/12/04 04:10:55;;;;;;;1.52;0.90;;;1.20;91.90;;;;;;5054097;28;20093;-73
2023/12/04 04:13:21;;;;;;;1.13;0.90;;;1.20;91.90;;;;;;5072572;28;20032;-72
2023/12/04 04:15:47;;;;;;;2.05;1.05;;;1.20;91.90;;;;;;5012967;28;20056;-73
2023/12/04 04:18:13;;;;;;;2.03;1.17;;;1.20;91.90;;;;;;5029946;28;20128;-73
2023/12/04 04:20:38;;;;;;;1.45;1.00;;;1.20;91.90;;;;;;5012731;28;20053;-72
2023/12/04 04:23:04;;;;;;;2.17;1.00;;;1.20;91.90;;;;;;5029635;28;20052;-73
2023/12/04 04:25:30;;;;;;;1.83;1.02;;;1.20;91.90;;;;;;5029194;28;20061;-73
2023/12/04 04:27:56;;;;;;;1.65;0.90;;;1.10;91.90;;;;;;4996528;28;20041;-73
2023/12/04 04:30:22;;;;;;;1.27;0.90;;;1.10;91.90;;;;;;5042521;28;20078;-73
2023/12/04 04:32:48;;;;;;;1.20;0.85;;;1.10;91.80;;;;;;5072948;28;20561;-73
2023/12/04 04:35:13;;;;;;;1.48;0.95;;;1.20;91.90;;;;;;5073181;28;20159;-73
2023/12/04 04:37:39;;;;;;;1.55;0.90;;;1.20;91.90;;;;;;5072540;28;20067;-72
2023/12/04 04:40:06;;;;;;;1.83;0.90;;;1.10;91.80;;;;;;5073087;28;20067;-73
2023/12/04 04:42:33;;;;;;;1.73;1.05;;;1.20;91.90;;;;;;5055605;28;20597;-73
2023/12/04 04:44:58;;;;;;;1.92;1.10;;;1.20;91.80;;;;;;5015578;28;20038;-73
2023/12/04 04:47:24;;;;;;;1.83;1.00;;;1.10;91.80;;;;;;5029650;28;20508;-72
2023/12/04 04:49:50;;;;;;;1.75;0.90;;;1.20;91.80;;;;;;5072438;28;20135;-72
2023/12/04 04:52:15;;;;;;;1.08;0.75;;;1.20;91.80;;;;;;5072249;28;20151;-72
2023/12/04 04:54:41;;;;;;;1.95;0.80;;;1.20;91.80;;;;;;5072139;28;20121;-72
2023/12/04 04:57:08;;;;;;;1.42;0.93;;;1.20;91.80;;;;;;5055382;28;20147;-73
2023/12/04 04:59:33;;;;;;;2.80;1.00;;;1.20;91.80;;;;;;5072261;28;20094;-73
2023/12/04 05:01:59;;;;;;;2.58;1.10;;;1.10;91.80;;;;;;5055504;28;20442;-73
2023/12/04 05:04:25;;;;;;;1.58;0.88;;;1.10;91.80;;;;;;5055863;28;20048;-73
2023/12/04 05:06:52;;;;;;;1.05;0.73;;;1.10;91.80;;;;;;5055376;28;20455;-73
2023/12/04 05:09:17;;;;;;;2.13;1.08;;;1.20;91.80;;;;;;5031985;28;20477;-73
2023/12/04 05:11:43;;;;;;;1.63;0.90;;;1.10;91.80;;;;;;5016021;28;20040;-72
2023/12/04 05:14:09;;;;;;;1.00;0.80;;;1.10;91.80;;;;;;5032689;28;20092;-73
2023/12/04 05:16:35;;;;;;;2.83;1.10;;;1.10;91.80;;;;;;5077190;28;20058;-73
2023/12/04 05:19:00;;;;;;;0.85;0.63;;;1.10;91.80;;;;;;5092305;28;20099;-73
2023/12/04 05:21:26;;;;;;;2.17;1.10;;;1.10;91.80;;;;;;5075106;28;20039;-72
2023/12/04 05:23:52;;;;;;;1.38;0.80;;;1.10;91.80;;;;;;5075490;28;20491;-73
2023/12/04 05:26:18;;;;;;;1.67;0.90;;;1.10;91.80;;;;;;5091982;28;20135;-72
2023/12/04 05:28:44;;;;;;;2.00;1.00;;;1.10;91.80;;;;;;5092061;28;20131;-72
2023/12/04 05:31:09;;;;;;;1.20;0.80;;;1.10;91.80;;;;;;5075315;28;20463;-72
2023/12/04 05:33:35;;;;;;;1.17;0.68;;;1.10;91.80;;;;;;5091930;28;20078;-73
2023/12/04 05:36:01;;;;;;;1.65;1.00;;;1.10;91.80;;;;;;5075542;28;20099;-73
2023/12/04 05:38:27;;;;;;;2.30;1.00;;;1.10;91.80;;;;;;5058541;28;20032;-72
2023/12/04 05:40:54;;;;;;;1.73;1.00;;;1.10;92.10;;;;;;5103037;27;20520;-72
2023/12/04 05:43:20;;;;;;;1.35;0.90;;;1.10;92.10;;;;;;5100009;27;20039;-72
2023/12/04 05:45:45;;;;;;;1.80;0.80;;;1.10;91.80;;;;;;5116564;27;20413;-73
2023/12/04 05:48:11;;;;;;;2.08;0.95;;;1.10;91.80;;;;;;5134913;27;20043;-73
2023/12/04 05:50:37;;;;;;;1.42;0.77;;;1.10;91.80;;;;;;5134792;27;20483;-73
2023/12/04 05:53:03;;;;;;;1.30;0.75;;;1.10;92.10;;;;;;5134816;27;20371;-73
2023/12/04 05:55:28;;;;;;;1.50;0.70;;;1.10;91.80;;;;;;5112895;28;20036;-73
2023/12/04 05:57:54;;;;;;;1.23;0.90;;;1.10;91.80;;;;;;5113413;28;20063;-73
2023/12/04 06:00:21;;;;;;;1.90;0.90;;;1.20;91.80;;;;;;5131839;27;20559;-73
2023/12/04 06:02:47;;;;;;;1.77;0.90;;;1.10;91.70;;;;;;5134746;27;20143;-73
2023/12/04 06:05:13;;;;;;;1.95;1.02;;;1.10;91.70;;;;;;5135067;27;20052;-73
2023/12/04 06:07:39;;;;;;;2.03;0.98;;;1.20;92.00;;;;;;5134340;27;20047;-73
2023/12/04 06:10:05;;;;;;;2.58;1.05;;;1.20;91.70;;;;;;5134625;27;20122;-72
2023/12/04 06:12:31;;;;;;;2.00;1.00;;;1.10;91.70;;;;;;5134172;27;20063;-73
2023/12/04 06:14:58;;;;;;;1.17;0.75;;;1.10;91.70;;;;;;5115834;27;20067;-73
2023/12/04 06:17:25;;;;;;;2.28;1.00;;;1.10;91.60;;;;;;5135001;27;20039;-73
2023/12/04 06:19:54;;;;;;;0.68;0.50;;;1.20;91.70;;;;;;5134491;27;20473;-72
2023/12/04 06:22:21;;;;;;;2.33;1.13;;;1.20;91.70;;;;;;5099309;27;20402;-72
2023/12/04 06:24:48;;;;;;;1.25;0.90;;;1.20;91.60;;;;;;5134310;27;20047;-73
2023/12/04 06:27:18;;;;;;;1.75;0.80;;;1.10;91.60;;;;;;5113114;28;20111;-73
2023/12/04 06:29:44;;;;;;;1.40;0.75;;;1.20;91.60;;;;;;5123996;27;20095;-73
2023/12/04 06:32:11;;;;;;;1.33;0.93;;;1.20;91.60;;;;;;5082000;28;20479;-72
2023/12/04 06:34:37;;;;;;;1.88;1.05;;;1.20;91.60;;;;;;5112199;28;20452;-72
2023/12/04 06:37:03;;;;;;;1.73;1.00;;;1.20;91.60;;;;;;5133034;27;20066;-73
2023/12/04 06:39:32;;;;;;;1.95;0.85;;;1.20;91.60;;;;;;5115804;27;20047;-73
2023/12/04 06:41:59;;;;;;;1.50;0.90;;;1.20;91.60;;;;;;5112354;28;20053;-73
2023/12/04 06:44:25;;;;;;;1.77;1.00;;;1.20;91.60;;;;;;5113628;28;20424;-73
2023/12/04 06:46:52;;;;;;;1.52;1.00;;;1.20;91.50;;;;;;5134267;27;20067;-73
2023/12/04 06:49:18;;;;;;;1.00;0.70;;;1.20;91.50;;;;;;5053543;28;20032;-73
2023/12/04 06:51:44;;;;;;;2.08;1.10;;;1.30;91.50;;;;;;5071014;28;20047;-73
2023/12/04 06:54:11;;;;;;;2.28;1.10;;;1.20;91.50;;;;;;5069888;28;20040;-73
2023/12/04 06:56:38;;;;;;;1.70;0.90;;;1.20;91.40;;;;;;5054104;28;20571;-72
2023/12/04 06:59:04;;;;;;;1.08;0.70;;;1.30;91.50;;;;;;5037075;28;20087;-73
2023/12/04 07:01:29;;;;;;;1.80;0.80;;;1.20;91.40;;;;;;5071130;28;20064;-73
2023/12/04 07:03:55;;;;;;;1.30;0.70;;;1.20;91.40;;;;;;5054291;28;20080;-73
2023/12/04 07:06:21;;;;;;;1.45;0.80;;;1.30;91.40;;;;;;5070184;28;20044;-74
2023/12/04 07:08:47;;;;;;;2.05;1.10;;;1.20;91.40;;;;;;5053707;28;20472;-73
2023/12/04 07:11:14;;;;;;;2.42;1.15;;;1.30;91.40;;;;;;5070793;28;20479;-73
2023/12/04 07:13:42;;;;;;;1.55;1.00;;;1.30;91.40;;;;;;5070473;28;20063;-73
2023/12/04 07:16:08;;;;;;;1.73;1.00;;;1.30;91.40;;;;;;5070835;28;20094;-73
2023/12/04 07:18:34;;;;;;;2.17;1.10;;;1.20;91.30;;;;;;5070141;28;20105;-73
2023/12/04 07:21:00;;;;;;;1.95;1.00;;;1.20;91.30;;;;;;5099136;28;20139;-72
2023/12/04 07:23:26;;;;;;;1.45;0.90;;;1.30;91.40;;;;;;5130135;27;20050;-72
2023/12/04 07:25:52;;;;;;;0.90;0.73;;;1.30;91.30;;;;;;5111594;28;20062;-72
2023/12/04 07:28:18;;;;;;;2.28;1.00;;;1.30;91.30;;;;;;5132930;27;20042;-73
2023/12/04 07:30:44;;;;;;;1.20;0.98;;;1.20;91.30;;;;;;5133205;27;20040;-73
2023/12/04 07:33:09;;;;;;;1.65;1.00;;;1.30;91.30;;;;;;5133693;27;20499;-73
2023/12/04 07:35:35;;;;;;;2.08;1.10;;;1.30;91.30;;;;;;5133573;27;20479;-73
2023/12/04 07:38:01;;;;;;;1.40;0.88;;;1.30;91.30;;;;;;5115284;27;20046;-73
2023/12/04 07:40:26;;;;;;;1.73;1.20;;;1.30;91.20;;;;;;5098161;27;20057;-73
2023/12/04 07:42:52;;;;;;;1.60;1.00;;;1.30;91.20;;;;;;5133115;27;20490;-72
2023/12/04 07:45:18;;;;;;;2.25;1.20;;;1.30;91.20;;;;;;5111062;28;20116;-73
2023/12/04 07:47:44;;;;;;;1.33;0.85;;;1.30;91.20;;;;;;5127571;27;20038;-72
2023/12/04 07:50:10;;;;;;;1.33;0.82;;;1.30;91.20;;;;;;5133396;27;20032;-72
2023/12/04 07:52:35;;;;;;;1.40;0.70;;;1.30;91.20;;;;;;5114480;27;20035;-73
2023/12/04 07:55:01;;;;;;;2.00;1.00;;;1.30;91.20;;;;;;5114398;27;20043;-72
2023/12/04 07:57:27;;;;;;;1.55;1.02;;;1.30;91.20;;;;;;5133129;27;20039;-72
2023/12/04 07:59:53;;;;;;;1.55;0.88;;;1.30;91.20;;;;;;5114620;27;20118;-73
2023/12/04 08:02:18;;;;;;;1.42;0.77;;;1.40;91.20;;;;;;5133203;27;20047;-72
2023/12/04 08:04:44;;;;;;;1.10;0.70;;;1.40;91.10;;;;;;5098035;28;20035;-72
2023/12/04 08:07:11;;;;;;;0.88;0.63;;;1.40;91.10;;;;;;5118238;27;20047;-72
2023/12/04 08:09:36;;;;;;;0.60;0.47;;;1.40;91.10;;;;;;5136260;27;20074;-72
2023/12/04 08:12:02;;;;;;;1.70;1.00;;;1.40;91.10;;;;;;5136232;27;20112;-72
2023/12/04 08:14:28;;;;;;;0.70;0.70;;;1.40;91.10;;;;;;5118449;28;20070;-71
2023/12/04 08:16:53;;;;;;;1.20;0.80;;;1.40;91.10;;;;;;5114392;28;20380;-71
2023/12/04 08:19:19;;;;;;;1.65;0.88;;;1.50;91.10;;;;;;5097550;28;20043;-71
2023/12/04 08:21:45;;;;;;;1.20;0.70;;;1.50;91.10;;;;;;5114198;28;20050;-72
2023/12/04 08:24:10;;;;;;;1.63;0.98;;;1.50;91.00;;;;;;5130076;27;20036;-71
2023/12/04 08:26:36;;;;;;;2.75;0.90;;;1.50;91.00;;;;;;5117668;27;20035;-71
2023/12/04 08:29:02;;;;;;;0.70;0.70;;;1.50;91.00;;;;;;5136156;27;20039;-71
2023/12/04 08:31:28;;;;;;;1.55;0.73;;;1.50;91.00;;;;;;5118357;27;20088;-72
2023/12/04 08:33:53;;;;;;;1.38;0.68;;;1.60;91.00;;;;;;5136508;27;20383;-71
2023/12/04 08:36:20;;;;;;;1.42;0.80;;;1.50;91.00;;;;;;5117667;27;20043;-71
2023/12/04 08:38:46;;;;;;;0.95;0.68;;;1.50;90.90;;;;;;5136384;27;20039;-75
2023/12/04 08:41:11;;;;;;;0.98;0.73;;;1.60;91.00;;;;;;5118191;27;20047;-72
2023/12/04 08:43:37;;;;;;;0.68;0.60;;;1.60;91.00;;;;;;5136433;27;20127;-72
2023/12/04 08:46:07;;;;;;;1.25;0.80;;;1.60;91.00;;;;;;5117659;27;20131;-73
2023/12/04 08:48:35;;;;;;;2.08;0.85;;;1.60;90.90;;;;;;5113910;28;20048;-72
2023/12/04 08:51:01;;;;;;;1.55;0.90;;;1.70;91.00;;;;;;5072075;28;20036;-71
2023/12/04 08:53:27;;;;;;;0.88;0.60;;;1.70;90.90;;;;;;5072862;28;20075;-72
2023/12/04 08:55:52;;;;;;;1.13;0.80;;;1.70;90.90;;;;;;5070427;28;20140;-73
2023/12/04 08:58:18;;;;;;;2.53;1.10;;;1.70;90.90;;;;;;5071144;28;20041;-72
2023/12/04 09:00:44;;;;;;;1.00;0.73;;;1.80;90.90;;;;;;5055543;28;20044;-72
2023/12/04 09:03:10;;;;;;;1.48;0.95;;;1.70;90.80;;;;;;5072042;28;20036;-73
2023/12/04 09:05:36;;;;;;;1.35;0.80;;;1.80;90.80;;;;;;5054365;28;20127;-72
2023/12/04 09:08:02;;;;;;;1.15;0.73;;;1.80;90.80;;;;;;5072950;28;20049;-72
2023/12/04 09:10:28;;;;;;;0.73;0.60;;;1.80;90.80;;;;;;5070077;28;20107;-73
2023/12/04 09:12:54;;;;;;;1.40;0.65;;;1.80;90.80;;;;;;5071566;28;20056;-72
2023/12/04 09:15:20;;;;;;;1.58;1.00;;;1.80;90.80;;;;;;5072413;28;20047;-73
2023/12/04 09:17:46;;;;;;;1.48;0.77;;;1.80;90.70;;;;;;5054616;28;20392;-72
2023/12/04 09:20:11;;;;;;;1.02;0.57;;;1.80;90.80;;;;;;5071812;28;20451;-73
2023/12/04 09:22:38;;;;;;;1.13;0.85;;;1.80;90.70;;;;;;5099881;28;20479;-73
2023/12/04 09:25:05;;;;;;;1.13;0.70;;;1.90;90.70;;;;;;5131697;27;20058;-72
2023/12/04 09:27:32;;;;;;;1.05;0.73;;;1.80;90.70;;;;;;5135229;27;20043;-72
2023/12/04 09:29:57;;;;;;;1.25;0.93;;;1.90;90.70;;;;;;5116573;27;20047;-72
2023/12/04 09:32:24;;;;;;;1.63;0.77;;;1.90;90.70;;;;;;5134984;27;20398;-72
2023/12/04 09:34:49;;;;;;;1.30;0.80;;;2.00;90.70;;;;;;5135143;27;20461;-72
2023/12/04 09:37:15;;;;;;;1.50;1.00;;;2.00;90.70;;;;;;5135300;27;20070;-73
2023/12/04 09:39:41;;;;;;;1.00;0.60;;;2.00;90.60;;;;;;5135556;27;20067;-73
2023/12/04 09:42:07;;;;;;;1.83;0.77;;;2.00;90.60;;;;;;5134898;27;20070;-73
2023/12/04 09:44:36;;;;;;;1.27;0.70;;;2.00;90.60;;;;;;5135034;27;20421;-74
2023/12/04 09:47:03;;;;;;;1.48;0.73;;;2.10;90.50;;;;;;5082750;27;20516;-73
2023/12/04 09:49:30;;;;;;;1.45;0.70;;;2.10;90.80;;;;;;5096265;28;20118;-74
2023/12/04 09:51:58;;;;;;;1.25;0.90;;;2.20;90.50;;;;;;5119273;28;20035;-73
2023/12/04 09:54:24;;;;;;;1.52;0.93;;;2.20;90.50;;;;;;5134888;27;20043;-74
2023/12/04 09:56:50;;;;;;;1.67;0.93;;;2.20;90.40;;;;;;5134865;27;20043;-73
2023/12/04 09:59:17;;;;;;;1.95;1.13;;;2.20;90.40;;;;;;5135215;27;20050;-74
2023/12/04 10:01:44;;;;;;;1.80;1.08;;;2.30;90.40;;;;;;5135280;27;20031;-74
2023/12/04 10:04:10;;;;;;;1.35;0.98;;;2.20;90.30;;;;;;5116354;27;20166;-73
2023/12/04 10:06:38;;;;;;;0.98;0.63;;;2.30;90.30;;;;;;5116354;28;20148;-73
2023/12/04 10:09:04;;;;;;;1.55;0.80;;;2.30;90.30;;;;;;5116431;28;20039;-74
2023/12/04 10:11:30;;;;;;;1.45;0.80;;;2.50;90.30;;;;;;5112540;28;20051;-74
2023/12/04 10:13:56;;;;;;;1.63;0.73;;;2.40;90.30;;;;;;5112548;28;20047;-74
2023/12/04 10:16:37;;;;;;;1.30;0.90;;;2.40;90.20;;;;;;5112670;28;20433;-74
2023/12/04 10:19:26;;;;;;;1.37;0.77;;;2.50;90.20;;;;;;5112373;28;20043;-73
2023/12/04 10:21:54;;;;;;;1.35;0.80;;;2.50;90.20;;;;;;5130687;27;20057;-74
2023/12/04 10:24:33;;;;;;;1.63;1.00;;;2.50;90.20;;;;;;5112648;28;20031;-73
2023/12/04 10:27:00;;;;;;;1.23;0.80;;;2.50;90.20;;;;;;5090803;28;20040;-73
2023/12/04 10:29:29;;;;;;;1.25;0.80;;;2.60;90.10;;;;;;5091206;28;20032;-73
2023/12/04 10:31:58;;;;;;;1.65;0.93;;;2.60;90.10;;;;;;5074545;28;20086;-73
2023/12/04 10:34:26;;;;;;;1.23;0.88;;;2.70;90.20;;;;;;5091682;28;20085;-73
2023/12/04 10:36:55;;;;;;;1.10;0.77;;;2.60;90.10;;;;;;5074319;28;20075;-73
2023/12/04 10:39:21;;;;;;;1.52;0.98;;;2.70;90.00;;;;;;5090927;28;20526;-73
2023/12/04 10:42:01;;;;;;;3.78;1.25;;;2.60;90.00;;;;;;5057407;28;20101;-74
2023/12/04 10:44:27;;;;;;;2.70;1.38;;;2.60;90.20;;;;;;5090984;28;20032;-73
2023/12/04 10:46:58;;;;;;;1.75;1.15;;;2.60;89.90;;;;;;5091353;28;20467;-73
2023/12/04 10:49:28;;;;;;;2.08;1.25;;;2.60;89.90;;;;;;5077065;28;20069;-74
2023/12/04 10:51:57;;;;;;;2.63;1.30;;;2.70;90.00;;;;;;5077816;28;20152;-74
2023/12/04 10:54:23;;;;;;;1.73;1.00;;;2.60;90.00;;;;;;5074349;28;20139;-75
2023/12/04 10:56:59;;;;;;;2.13;1.10;;;2.60;90.00;;;;;;5045936;28;20044;-74
2023/12/04 10:59:31;;;;;;;1.55;0.85;;;2.60;90.00;;;;;;5060559;28;20102;-74
2023/12/04 11:02:01;;;;;;;2.40;1.17;;;2.60;90.00;;;;;;5058911;28;20060;-73
2023/12/04 11:04:32;;;;;;;1.45;0.98;;;2.70;90.00;;;;;;5054752;28;20485;-77
2023/12/04 11:07:02;;;;;;;1.40;1.00;;;2.70;89.90;;;;;;5028186;28;20045;-76
2023/12/04 11:09:29;;;;;;;1.73;1.10;;;2.70;89.80;;;;;;5048733;28;20123;-75
2023/12/04 11:12:02;;;;;;;1.55;1.20;;;2.80;89.80;;;;;;5064821;28;20049;-75
2023/12/04 11:14:34;;;;;;;2.08;1.08;;;2.80;89.70;;;;;;5061534;28;20068;-75
2023/12/04 11:17:06;;;;;;;2.88;1.33;;;2.80;89.60;;;;;;5067319;28;20118;-75
2023/12/04 11:19:49;;;;;;;1.77;1.02;;;2.80;89.50;;;;;;5075310;28;20040;-76
2023/12/04 11:22:20;;;;;;;1.50;0.98;;;2.80;89.50;;;;;;5030737;28;20516;-76
2023/12/04 11:24:48;;;;;;;2.80;1.33;;;2.80;89.50;;;;;;5024267;28;20037;-74
2023/12/04 11:27:16;;;;;;;1.58;0.88;;;2.80;89.50;;;;;;5022716;28;20049;-74
2023/12/04 11:29:41;;;;;;;0.65;0.60;;;2.90;89.50;;;;;;5045344;28;20046;-75
2023/12/04 11:32:12;;;;;;;1.40;0.82;;;2.90;89.50;;;;;;5087295;28;20064;-75
2023/12/04 11:34:48;;;;;;;1.63;1.00;;;2.90;89.50;;;;;;5081750;28;20066;-74
2023/12/04 11:37:14;;;;;;;1.08;0.75;;;2.90;89.50;;;;;;5080227;28;20050;-75
2023/12/04 11:39:41;;;;;;;1.83;0.95;;;2.90;89.50;;;;;;5089425;28;20131;-76
2023/12/04 11:42:07;;;;;;;1.75;0.98;;;3.00;89.50;;;;;;5056704;28;20032;-75
2023/12/04 11:44:33;;;;;;;1.77;1.10;;;2.90;89.40;;;;;;5073794;28;20044;-75
2023/12/04 11:47:06;;;;;;;2.15;1.00;;;2.90;89.40;;;;;;5072989;28;20040;-75
2023/12/04 11:49:32;;;;;;;1.77;1.02;;;2.90;89.40;;;;;;5090852;28;20036;-75
2023/12/04 11:52:01;;;;;;;1.00;0.70;;;2.80;89.30;;;;;;5090513;28;20044;-73
2023/12/04 11:54:28;;;;;;;2.85;1.20;;;2.80;89.40;;;;;;5122119;27;20059;-75
2023/12/04 11:57:22;;;;;;;2.28;0.80;;;2.80;89.30;;;;;;5115579;27;20047;-74
2023/12/04 11:59:48;;;;;;;1.33;0.88;;;2.80;89.30;;;;;;5101701;28;20039;-75
2023/12/04 12:02:15;;;;;;;1.52;0.93;;;2.90;89.40;;;;;;5135466;27;20474;-74
2023/12/04 12:04:41;;;;;;;1.65;1.00;;;2.90;89.40;;;;;;5112088;27;20050;-75
2023/12/04 12:07:07;;;;;;;1.63;1.00;;;3.00;89.40;;;;;;5094446;28;20123;-74
2023/12/04 12:09:33;;;;;;;1.17;0.88;;;2.90;89.30;;;;;;5111863;28;20043;-74
2023/12/04 12:12:02;;;;;;;2.03;1.00;;;2.90;89.30;;;;;;5077384;28;20040;-75
2023/12/04 12:14:28;;;;;;;1.83;0.90;;;2.90;89.30;;;;;;5112271;28;20062;-74
2023/12/04 12:17:00;;;;;;;1.23;0.90;;;2.90;89.20;;;;;;5076945;28;20048;-75
2023/12/04 12:19:25;;;;;;;;;;;2.90;89.20;;;;;;5079861;27;20097;-75
2023/12/04 12:21:52;;;;;;;1.73;1.05;;;2.90;89.20;;;;;;5093804;28;19912;-74
2023/12/04 12:24:28;;;;;;;1.20;0.90;;;2.90;89.20;;;;;;5077819;27;20522;-77
2023/12/04 12:26:55;;;;;;;1.35;0.88;;;3.00;89.20;;;;;;5094191;28;20071;-75
2023/12/04 12:29:22;;;;;;;1.95;1.10;;;2.90;89.20;;;;;;5077198;28;20043;-75
2023/12/04 12:31:47;;;;;;;1.92;0.98;;;2.80;89.10;;;;;;5092745;28;20075;-75
2023/12/04 12:34:13;;;;;;;2.95;1.20;;;2.90;89.10;;;;;;5076021;28;20483;-75
2023/12/04 12:36:40;;;;;;;1.73;1.00;;;3.00;89.10;;;;;;5092712;28;20062;-75
2023/12/04 12:39:08;;;;;;;2.20;1.02;;;2.80;89.00;;;;;;5092717;28;20075;-75
2023/12/04 12:41:35;;;;;;;1.90;1.10;;;2.90;89.10;;;;;;5076106;28;20104;-75
2023/12/04 12:44:01;;;;;;;1.42;0.90;;;2.80;89.10;;;;;;5093142;28;20558;-75
2023/12/04 12:46:27;;;;;;;2.22;1.10;;;2.90;89.00;;;;;;5093101;28;20066;-73
2023/12/04 12:48:53;;;;;;;1.02;0.80;;;2.90;89.10;;;;;;5092972;28;20447;-74
2023/12/04 12:51:19;;;;;;;2.45;1.23;;;2.90;89.00;;;;;;5093009;28;20040;-74
2023/12/04 12:53:45;;;;;;;1.75;1.00;;;2.80;88.90;;;;;;5079630;28;20044;-74
2023/12/04 12:56:11;;;;;;;1.73;1.15;;;2.80;88.90;;;;;;5096184;28;20531;-74